sensor_id;sensor_type;location;lat;lon;timestamp;P1;durP1;ratioP1;P2;durP2;ratioP2
44987;SDS011;35735;52.226;21.254;2023-02-07T00:00:14;53.95;;;28.98;;
44987;SDS011;35735;52.226;21.254;2023-02-07T00:05:16;52.40;;;28.73;;
44987;SDS011;35735;52.226;21.254;2023-02-07T00:10:17;54.53;;;29.23;;
44987;SDS011;35735;52.226;21.254;2023-02-07T00:15:17;54.60;;;28.60;;
44987;SDS011;35735;52.226;21.254;2023-02-07T00:20:18;50.85;;;27.70;;
44987;SDS011;35735;52.226;21.254;2023-02-07T00:25:19;50.40;;;27.70;;
44987;SDS011;35735;52.226;21.254;2023-02-07T00:30:19;52.53;;;29.30;;
44987;SDS011;35735;52.226;21.254;2023-02-07T00:35:20;53.45;;;28.38;;
44987;SDS011;35735;52.226;21.254;2023-02-07T00:40:20;51.53;;;28.27;;
44987;SDS011;35735;52.226;21.254;2023-02-07T00:45:21;52.58;;;27.37;;
44987;SDS011;35735;52.226;21.254;2023-02-07T00:50:21;54.10;;;29.63;;
44987;SDS011;35735;52.226;21.254;2023-02-07T00:55:22;55.47;;;29.52;;
44987;SDS011;35735;52.226;21.254;2023-02-07T01:00:22;58.33;;;30.25;;
44987;SDS011;35735;52.226;21.254;2023-02-07T01:05:23;57.83;;;30.33;;
44987;SDS011;35735;52.226;21.254;2023-02-07T01:10:23;56.90;;;30.75;;
44987;SDS011;35735;52.226;21.254;2023-02-07T01:15:24;59.83;;;31.35;;
44987;SDS011;35735;52.226;21.254;2023-02-07T01:20:25;56.03;;;31.25;;
44987;SDS011;35735;52.226;21.254;2023-02-07T01:25:28;63.17;;;31.67;;
44987;SDS011;35735;52.226;21.254;2023-02-07T01:30:28;57.75;;;32.45;;
44987;SDS011;35735;52.226;21.254;2023-02-07T01:35:29;57.35;;;31.50;;
44987;SDS011;35735;52.226;21.254;2023-02-07T01:40:29;59.63;;;32.65;;
44987;SDS011;35735;52.226;21.254;2023-02-07T01:45:34;64.78;;;32.22;;
44987;SDS011;35735;52.226;21.254;2023-02-07T01:50:38;65.43;;;32.92;;
44987;SDS011;35735;52.226;21.254;2023-02-07T01:55:43;60.00;;;31.77;;
44987;SDS011;35735;52.226;21.254;2023-02-07T02:00:46;61.88;;;32.67;;
44987;SDS011;35735;52.226;21.254;2023-02-07T02:05:47;62.95;;;33.00;;
44987;SDS011;35735;52.226;21.254;2023-02-07T02:16:41;63.90;;;33.78;;
44987;SDS011;35735;52.226;21.254;2023-02-07T02:22:09;61.97;;;33.50;;
44987;SDS011;35735;52.226;21.254;2023-02-07T02:38:30;59.30;;;32.83;;
44987;SDS011;35735;52.226;21.254;2023-02-07T02:43:36;62.13;;;31.92;;
44987;SDS011;35735;52.226;21.254;2023-02-07T02:48:44;60.58;;;32.50;;
44987;SDS011;35735;52.226;21.254;2023-02-07T02:53:55;61.83;;;32.67;;
44987;SDS011;35735;52.226;21.254;2023-02-07T03:09:57;57.00;;;32.47;;
44987;SDS011;35735;52.226;21.254;2023-02-07T03:15:24;57.58;;;31.10;;
44987;SDS011;35735;52.226;21.254;2023-02-07T03:20:31;64.07;;;35.72;;
44987;SDS011;35735;52.226;21.254;2023-02-07T03:25:36;61.78;;;34.08;;
44987;SDS011;35735;52.226;21.254;2023-02-07T03:30:39;57.00;;;31.35;;
44987;SDS011;35735;52.226;21.254;2023-02-07T03:40:56;94.60;;;60.42;;
44987;SDS011;35735;52.226;21.254;2023-02-07T03:46:02;83.03;;;50.63;;
44987;SDS011;35735;52.226;21.254;2023-02-07T03:51:03;72.35;;;39.08;;
44987;SDS011;35735;52.226;21.254;2023-02-07T03:56:04;74.45;;;44.75;;
44987;SDS011;35735;52.226;21.254;2023-02-07T04:01:05;59.78;;;32.42;;
44987;SDS011;35735;52.226;21.254;2023-02-07T04:06:05;56.78;;;34.13;;
44987;SDS011;35735;52.226;21.254;2023-02-07T04:11:06;53.60;;;28.10;;
44987;SDS011;35735;52.226;21.254;2023-02-07T04:16:07;52.42;;;28.33;;
44987;SDS011;35735;52.226;21.254;2023-02-07T04:21:07;50.60;;;27.98;;
44987;SDS011;35735;52.226;21.254;2023-02-07T04:26:08;46.00;;;26.00;;
44987;SDS011;35735;52.226;21.254;2023-02-07T04:31:09;50.70;;;27.35;;
44987;SDS011;35735;52.226;21.254;2023-02-07T04:36:09;48.58;;;27.27;;
44987;SDS011;35735;52.226;21.254;2023-02-07T04:41:10;49.08;;;26.90;;
44987;SDS011;35735;52.226;21.254;2023-02-07T04:46:12;42.15;;;23.83;;
44987;SDS011;35735;52.226;21.254;2023-02-07T04:51:12;44.42;;;25.23;;
44987;SDS011;35735;52.226;21.254;2023-02-07T04:56:13;48.15;;;25.23;;
44987;SDS011;35735;52.226;21.254;2023-02-07T05:01:13;49.92;;;25.35;;
44987;SDS011;35735;52.226;21.254;2023-02-07T05:06:14;42.33;;;24.05;;
44987;SDS011;35735;52.226;21.254;2023-02-07T05:11:15;43.20;;;24.90;;
44987;SDS011;35735;52.226;21.254;2023-02-07T05:16:15;39.22;;;23.65;;
44987;SDS011;35735;52.226;21.254;2023-02-07T05:21:16;44.10;;;23.60;;
44987;SDS011;35735;52.226;21.254;2023-02-07T05:26:16;41.63;;;22.80;;
44987;SDS011;35735;52.226;21.254;2023-02-07T05:31:17;41.95;;;22.27;;
44987;SDS011;35735;52.226;21.254;2023-02-07T05:36:17;43.95;;;22.00;;
44987;SDS011;35735;52.226;21.254;2023-02-07T05:41:18;41.40;;;21.90;;
44987;SDS011;35735;52.226;21.254;2023-02-07T05:46:18;41.10;;;22.52;;
44987;SDS011;35735;52.226;21.254;2023-02-07T05:51:19;34.97;;;21.50;;
44987;SDS011;35735;52.226;21.254;2023-02-07T05:56:19;38.90;;;20.98;;
44987;SDS011;35735;52.226;21.254;2023-02-07T06:01:20;43.05;;;22.50;;
44987;SDS011;35735;52.226;21.254;2023-02-07T06:06:21;38.88;;;20.92;;
44987;SDS011;35735;52.226;21.254;2023-02-07T06:11:21;35.97;;;20.15;;
44987;SDS011;35735;52.226;21.254;2023-02-07T06:16:22;35.70;;;20.02;;
44987;SDS011;35735;52.226;21.254;2023-02-07T06:21:22;31.40;;;18.08;;
44987;SDS011;35735;52.226;21.254;2023-02-07T06:26:23;34.30;;;19.55;;
44987;SDS011;35735;52.226;21.254;2023-02-07T06:31:23;28.42;;;16.75;;
44987;SDS011;35735;52.226;21.254;2023-02-07T06:36:24;33.78;;;18.17;;
44987;SDS011;35735;52.226;21.254;2023-02-07T06:41:25;31.25;;;18.27;;
44987;SDS011;35735;52.226;21.254;2023-02-07T06:46:25;32.05;;;18.17;;
44987;SDS011;35735;52.226;21.254;2023-02-07T06:51:26;29.42;;;17.00;;
44987;SDS011;35735;52.226;21.254;2023-02-07T06:56:26;29.73;;;17.65;;
44987;SDS011;35735;52.226;21.254;2023-02-07T07:01:27;33.13;;;18.05;;
44987;SDS011;35735;52.226;21.254;2023-02-07T07:06:28;28.92;;;16.70;;
44987;SDS011;35735;52.226;21.254;2023-02-07T07:11:28;32.17;;;17.40;;
44987;SDS011;35735;52.226;21.254;2023-02-07T07:16:29;28.87;;;18.33;;
44987;SDS011;35735;52.226;21.254;2023-02-07T07:21:30;31.80;;;17.95;;
44987;SDS011;35735;52.226;21.254;2023-02-07T07:26:30;28.20;;;16.60;;
44987;SDS011;35735;52.226;21.254;2023-02-07T07:31:31;24.65;;;15.02;;
44987;SDS011;35735;52.226;21.254;2023-02-07T07:36:31;25.37;;;16.37;;
44987;SDS011;35735;52.226;21.254;2023-02-07T07:41:32;27.95;;;15.35;;
44987;SDS011;35735;52.226;21.254;2023-02-07T07:46:33;28.58;;;16.08;;
44987;SDS011;35735;52.226;21.254;2023-02-07T07:51:33;28.12;;;16.23;;
44987;SDS011;35735;52.226;21.254;2023-02-07T07:56:34;26.15;;;15.65;;
44987;SDS011;35735;52.226;21.254;2023-02-07T08:01:35;35.78;;;17.98;;
44987;SDS011;35735;52.226;21.254;2023-02-07T08:06:35;27.25;;;15.48;;
44987;SDS011;35735;52.226;21.254;2023-02-07T08:11:36;27.08;;;16.37;;
44987;SDS011;35735;52.226;21.254;2023-02-07T08:16:37;27.50;;;14.52;;
44987;SDS011;35735;52.226;21.254;2023-02-07T08:21:37;25.08;;;14.57;;
44987;SDS011;35735;52.226;21.254;2023-02-07T08:26:38;25.73;;;14.65;;
44987;SDS011;35735;52.226;21.254;2023-02-07T08:31:38;23.52;;;15.27;;
44987;SDS011;35735;52.226;21.254;2023-02-07T08:36:39;27.70;;;15.48;;
44987;SDS011;35735;52.226;21.254;2023-02-07T08:41:39;27.15;;;16.33;;
44987;SDS011;35735;52.226;21.254;2023-02-07T08:46:40;26.25;;;15.73;;
44987;SDS011;35735;52.226;21.254;2023-02-07T08:51:40;25.85;;;15.15;;
44987;SDS011;35735;52.226;21.254;2023-02-07T08:56:41;28.67;;;15.32;;
44987;SDS011;35735;52.226;21.254;2023-02-07T09:01:42;27.80;;;15.30;;
44987;SDS011;35735;52.226;21.254;2023-02-07T09:06:42;21.87;;;13.98;;
44987;SDS011;35735;52.226;21.254;2023-02-07T09:11:43;24.90;;;13.95;;
44987;SDS011;35735;52.226;21.254;2023-02-07T09:16:43;22.27;;;13.10;;
44987;SDS011;35735;52.226;21.254;2023-02-07T09:21:44;24.90;;;14.27;;
44987;SDS011;35735;52.226;21.254;2023-02-07T09:26:45;25.20;;;14.20;;
44987;SDS011;35735;52.226;21.254;2023-02-07T09:31:45;23.52;;;13.43;;
44987;SDS011;35735;52.226;21.254;2023-02-07T09:36:46;22.62;;;13.38;;
44987;SDS011;35735;52.226;21.254;2023-02-07T09:52:02;21.02;;;13.05;;
44987;SDS011;35735;52.226;21.254;2023-02-07T09:57:07;15.80;;;10.65;;
44987;SDS011;35735;52.226;21.254;2023-02-07T10:02:30;20.02;;;12.15;;
44987;SDS011;35735;52.226;21.254;2023-02-07T10:07:35;21.58;;;11.73;;
44987;SDS011;35735;52.226;21.254;2023-02-07T10:34:55;21.37;;;12.32;;
44987;SDS011;35735;52.226;21.254;2023-02-07T10:40:21;18.30;;;10.27;;
44987;SDS011;35735;52.226;21.254;2023-02-07T10:45:27;19.58;;;9.73;;
44987;SDS011;35735;52.226;21.254;2023-02-07T10:50:27;18.52;;;10.88;;
44987;SDS011;35735;52.226;21.254;2023-02-07T10:55:41;20.95;;;11.57;;
44987;SDS011;35735;52.226;21.254;2023-02-07T11:00:48;23.70;;;11.30;;
44987;SDS011;35735;52.226;21.254;2023-02-07T11:05:54;20.50;;;10.65;;
44987;SDS011;35735;52.226;21.254;2023-02-07T11:10:58;21.83;;;11.43;;
44987;SDS011;35735;52.226;21.254;2023-02-07T11:16:35;17.77;;;11.35;;
44987;SDS011;35735;52.226;21.254;2023-02-07T11:21:40;21.33;;;13.00;;
44987;SDS011;35735;52.226;21.254;2023-02-07T11:26:53;22.23;;;13.00;;
44987;SDS011;35735;52.226;21.254;2023-02-07T11:31:57;23.40;;;12.25;;
44987;SDS011;35735;52.226;21.254;2023-02-07T11:42:25;19.65;;;11.63;;
44987;SDS011;35735;52.226;21.254;2023-02-07T11:47:30;22.10;;;12.40;;
44987;SDS011;35735;52.226;21.254;2023-02-07T11:52:33;22.08;;;10.65;;
44987;SDS011;35735;52.226;21.254;2023-02-07T11:57:37;17.15;;;9.93;;
44987;SDS011;35735;52.226;21.254;2023-02-07T12:02:38;18.17;;;11.30;;
44987;SDS011;35735;52.226;21.254;2023-02-07T12:07:47;21.35;;;10.05;;
44987;SDS011;35735;52.226;21.254;2023-02-07T12:18:45;21.20;;;12.40;;
44987;SDS011;35735;52.226;21.254;2023-02-07T12:23:57;16.62;;;10.20;;
44987;SDS011;35735;52.226;21.254;2023-02-07T12:45:22;19.20;;;10.77;;
44987;SDS011;35735;52.226;21.254;2023-02-07T13:01:52;18.75;;;11.52;;
44987;SDS011;35735;52.226;21.254;2023-02-07T13:12:41;20.55;;;11.07;;
44987;SDS011;35735;52.226;21.254;2023-02-07T13:17:53;17.95;;;10.98;;
44987;SDS011;35735;52.226;21.254;2023-02-07T13:23:05;18.90;;;10.98;;
44987;SDS011;35735;52.226;21.254;2023-02-07T13:28:20;19.17;;;11.23;;
44987;SDS011;35735;52.226;21.254;2023-02-07T13:33:31;21.15;;;11.65;;
44987;SDS011;35735;52.226;21.254;2023-02-07T13:38:49;20.20;;;10.73;;
44987;SDS011;35735;52.226;21.254;2023-02-07T13:44:18;20.42;;;12.07;;
44987;SDS011;35735;52.226;21.254;2023-02-07T13:49:28;21.27;;;12.82;;
44987;SDS011;35735;52.226;21.254;2023-02-07T14:05:22;22.45;;;13.43;;
44987;SDS011;35735;52.226;21.254;2023-02-07T14:10:41;20.90;;;12.15;;
44987;SDS011;35735;52.226;21.254;2023-02-07T14:20:45;20.53;;;12.13;;
44987;SDS011;35735;52.226;21.254;2023-02-07T14:25:47;22.58;;;13.00;;
44987;SDS011;35735;52.226;21.254;2023-02-07T14:41:14;22.60;;;12.90;;
44987;SDS011;35735;52.226;21.254;2023-02-07T14:46:26;20.83;;;12.18;;
44987;SDS011;35735;52.226;21.254;2023-02-07T14:51:43;23.35;;;12.85;;
44987;SDS011;35735;52.226;21.254;2023-02-07T15:07:37;21.10;;;13.50;;
44987;SDS011;35735;52.226;21.254;2023-02-07T15:12:38;23.92;;;13.90;;
44987;SDS011;35735;52.226;21.254;2023-02-07T15:17:40;22.40;;;14.35;;
44987;SDS011;35735;52.226;21.254;2023-02-07T15:22:45;23.10;;;15.20;;
44987;SDS011;35735;52.226;21.254;2023-02-07T15:28:55;26.98;;;16.35;;
44987;SDS011;35735;52.226;21.254;2023-02-07T15:33:24;26.33;;;14.93;;
44987;SDS011;35735;52.226;21.254;2023-02-07T15:38:28;22.75;;;14.82;;
44987;SDS011;35735;52.226;21.254;2023-02-07T15:48:33;31.35;;;17.98;;
44987;SDS011;35735;52.226;21.254;2023-02-07T15:53:55;30.42;;;16.52;;
44987;SDS011;35735;52.226;21.254;2023-02-07T15:59:07;27.30;;;15.27;;
44987;SDS011;35735;52.226;21.254;2023-02-07T16:04:09;30.02;;;16.25;;
44987;SDS011;35735;52.226;21.254;2023-02-07T16:09:31;27.55;;;16.65;;
44987;SDS011;35735;52.226;21.254;2023-02-07T16:14:38;40.75;;;20.35;;
44987;SDS011;35735;52.226;21.254;2023-02-07T16:19:44;35.10;;;18.48;;
44987;SDS011;35735;52.226;21.254;2023-02-07T16:24:45;37.75;;;19.50;;
44987;SDS011;35735;52.226;21.254;2023-02-07T16:29:47;35.72;;;19.90;;
44987;SDS011;35735;52.226;21.254;2023-02-07T16:34:47;56.08;;;25.98;;
44987;SDS011;35735;52.226;21.254;2023-02-07T16:39:48;46.15;;;22.77;;
44987;SDS011;35735;52.226;21.254;2023-02-07T16:44:48;37.72;;;20.95;;
44987;SDS011;35735;52.226;21.254;2023-02-07T16:49:49;50.17;;;25.85;;
44987;SDS011;35735;52.226;21.254;2023-02-07T16:54:49;41.97;;;23.00;;
44987;SDS011;35735;52.226;21.254;2023-02-07T16:59:50;41.40;;;21.48;;
44987;SDS011;35735;52.226;21.254;2023-02-07T17:04:50;39.22;;;21.20;;
44987;SDS011;35735;52.226;21.254;2023-02-07T17:09:51;40.67;;;23.25;;
44987;SDS011;35735;52.226;21.254;2023-02-07T17:14:51;41.70;;;20.67;;
44987;SDS011;35735;52.226;21.254;2023-02-07T17:19:52;43.72;;;20.85;;
44987;SDS011;35735;52.226;21.254;2023-02-07T17:24:53;39.05;;;20.73;;
44987;SDS011;35735;52.226;21.254;2023-02-07T17:29:53;46.97;;;24.23;;
44987;SDS011;35735;52.226;21.254;2023-02-07T17:34:54;40.70;;;21.85;;
44987;SDS011;35735;52.226;21.254;2023-02-07T17:39:54;40.03;;;21.27;;
44987;SDS011;35735;52.226;21.254;2023-02-07T17:44:55;34.42;;;18.48;;
44987;SDS011;35735;52.226;21.254;2023-02-07T17:49:55;32.55;;;18.55;;
44987;SDS011;35735;52.226;21.254;2023-02-07T17:54:56;35.55;;;19.55;;
44987;SDS011;35735;52.226;21.254;2023-02-07T17:59:56;52.40;;;28.87;;
44987;SDS011;35735;52.226;21.254;2023-02-07T18:04:57;35.72;;;19.90;;
44987;SDS011;35735;52.226;21.254;2023-02-07T18:09:58;33.97;;;19.48;;
44987;SDS011;35735;52.226;21.254;2023-02-07T18:14:58;31.33;;;18.77;;
44987;SDS011;35735;52.226;21.254;2023-02-07T18:19:59;25.15;;;16.17;;
44987;SDS011;35735;52.226;21.254;2023-02-07T18:24:59;27.50;;;16.10;;
44987;SDS011;35735;52.226;21.254;2023-02-07T18:30:00;27.08;;;17.10;;
44987;SDS011;35735;52.226;21.254;2023-02-07T18:35:01;28.87;;;16.08;;
44987;SDS011;35735;52.226;21.254;2023-02-07T18:40:03;29.12;;;17.25;;
44987;SDS011;35735;52.226;21.254;2023-02-07T18:45:05;31.50;;;15.93;;
44987;SDS011;35735;52.226;21.254;2023-02-07T18:50:07;28.85;;;17.17;;
44987;SDS011;35735;52.226;21.254;2023-02-07T18:55:09;31.02;;;17.25;;
44987;SDS011;35735;52.226;21.254;2023-02-07T19:00:10;32.40;;;17.83;;
44987;SDS011;35735;52.226;21.254;2023-02-07T19:05:11;31.87;;;17.90;;
44987;SDS011;35735;52.226;21.254;2023-02-07T19:10:12;28.98;;;17.50;;
44987;SDS011;35735;52.226;21.254;2023-02-07T19:15:13;33.45;;;19.73;;
44987;SDS011;35735;52.226;21.254;2023-02-07T19:20:13;35.13;;;19.52;;
44987;SDS011;35735;52.226;21.254;2023-02-07T19:25:14;31.95;;;18.45;;
44987;SDS011;35735;52.226;21.254;2023-02-07T19:30:14;29.40;;;17.62;;
44987;SDS011;35735;52.226;21.254;2023-02-07T19:35:15;33.65;;;18.30;;
44987;SDS011;35735;52.226;21.254;2023-02-07T19:40:15;31.55;;;17.48;;
44987;SDS011;35735;52.226;21.254;2023-02-07T19:45:16;31.40;;;16.80;;
44987;SDS011;35735;52.226;21.254;2023-02-07T19:50:16;33.53;;;17.30;;
44987;SDS011;35735;52.226;21.254;2023-02-07T19:55:17;37.05;;;21.12;;
44987;SDS011;35735;52.226;21.254;2023-02-07T20:00:18;40.17;;;20.80;;
44987;SDS011;35735;52.226;21.254;2023-02-07T20:05:18;43.70;;;23.95;;
44987;SDS011;35735;52.226;21.254;2023-02-07T20:10:19;58.55;;;29.65;;
44987;SDS011;35735;52.226;21.254;2023-02-07T20:15:21;61.65;;;32.85;;
44987;SDS011;35735;52.226;21.254;2023-02-07T20:20:21;62.20;;;35.95;;
44987;SDS011;35735;52.226;21.254;2023-02-07T20:25:22;53.95;;;30.67;;
44987;SDS011;35735;52.226;21.254;2023-02-07T20:30:22;50.80;;;25.33;;
44987;SDS011;35735;52.226;21.254;2023-02-07T20:35:23;45.25;;;25.08;;
44987;SDS011;35735;52.226;21.254;2023-02-07T20:40:24;51.13;;;28.00;;
44987;SDS011;35735;52.226;21.254;2023-02-07T20:45:24;56.03;;;29.80;;
44987;SDS011;35735;52.226;21.254;2023-02-07T20:50:25;48.80;;;24.25;;
44987;SDS011;35735;52.226;21.254;2023-02-07T20:55:26;40.80;;;22.15;;
44987;SDS011;35735;52.226;21.254;2023-02-07T21:00:26;35.80;;;21.23;;
44987;SDS011;35735;52.226;21.254;2023-02-07T21:05:27;31.12;;;18.75;;
44987;SDS011;35735;52.226;21.254;2023-02-07T21:10:27;31.27;;;18.62;;
44987;SDS011;35735;52.226;21.254;2023-02-07T21:15:28;29.00;;;17.90;;
44987;SDS011;35735;52.226;21.254;2023-02-07T21:20:28;34.38;;;19.50;;
44987;SDS011;35735;52.226;21.254;2023-02-07T21:25:31;34.85;;;20.00;;
44987;SDS011;35735;52.226;21.254;2023-02-07T21:30:32;32.90;;;19.42;;
44987;SDS011;35735;52.226;21.254;2023-02-07T21:35:33;35.00;;;19.37;;
44987;SDS011;35735;52.226;21.254;2023-02-07T21:40:33;35.20;;;20.35;;
44987;SDS011;35735;52.226;21.254;2023-02-07T21:45:34;38.22;;;22.50;;
44987;SDS011;35735;52.226;21.254;2023-02-07T21:50:35;38.25;;;22.60;;
44987;SDS011;35735;52.226;21.254;2023-02-07T21:55:35;39.80;;;22.55;;
44987;SDS011;35735;52.226;21.254;2023-02-07T22:00:36;38.35;;;21.92;;
44987;SDS011;35735;52.226;21.254;2023-02-07T22:05:36;39.88;;;21.75;;
44987;SDS011;35735;52.226;21.254;2023-02-07T22:10:37;38.65;;;22.55;;
44987;SDS011;35735;52.226;21.254;2023-02-07T22:15:37;36.17;;;22.35;;
44987;SDS011;35735;52.226;21.254;2023-02-07T22:20:38;38.40;;;22.15;;
44987;SDS011;35735;52.226;21.254;2023-02-07T22:25:39;40.88;;;23.95;;
44987;SDS011;35735;52.226;21.254;2023-02-07T22:30:40;36.97;;;22.05;;
44987;SDS011;35735;52.226;21.254;2023-02-07T22:35:41;37.72;;;21.90;;
44987;SDS011;35735;52.226;21.254;2023-02-07T22:40:42;37.30;;;21.60;;
44987;SDS011;35735;52.226;21.254;2023-02-07T22:45:43;37.97;;;21.60;;
44987;SDS011;35735;52.226;21.254;2023-02-07T22:50:44;38.50;;;22.45;;
44987;SDS011;35735;52.226;21.254;2023-02-07T22:55:44;43.97;;;24.05;;
44987;SDS011;35735;52.226;21.254;2023-02-07T23:00:45;41.35;;;23.48;;
44987;SDS011;35735;52.226;21.254;2023-02-07T23:05:45;41.55;;;24.08;;
44987;SDS011;35735;52.226;21.254;2023-02-07T23:10:46;45.58;;;24.42;;
44987;SDS011;35735;52.226;21.254;2023-02-07T23:15:47;41.83;;;24.27;;
44987;SDS011;35735;52.226;21.254;2023-02-07T23:20:47;40.58;;;23.48;;
44987;SDS011;35735;52.226;21.254;2023-02-07T23:25:48;45.47;;;24.63;;
44987;SDS011;35735;52.226;21.254;2023-02-07T23:30:49;44.70;;;23.75;;
44987;SDS011;35735;52.226;21.254;2023-02-07T23:35:50;46.05;;;24.92;;
44987;SDS011;35735;52.226;21.254;2023-02-07T23:40:51;41.08;;;24.63;;
44987;SDS011;35735;52.226;21.254;2023-02-07T23:45:52;41.55;;;23.90;;
44987;SDS011;35735;52.226;21.254;2023-02-07T23:50:53;45.10;;;24.15;;
44987;SDS011;35735;52.226;21.254;2023-02-07T23:55:56;44.40;;;25.70;;
